createdAt,value
2023-05-09T00:00:02.774Z,101860.66
2023-05-09T00:02:29.645Z,101856.78
2023-05-09T00:04:56.722Z,101851.25
2023-05-09T00:07:23.076Z,101853.16
2023-05-09T00:09:49.515Z,101842.06
2023-05-09T00:12:15.944Z,101836.94
2023-05-09T00:14:45.333Z,101843.72
2023-05-09T00:17:14.386Z,101840.91
2023-05-09T00:19:40.762Z,101841.91
2023-05-09T00:22:09.026Z,101841.84
2023-05-09T00:24:35.572Z,101842.06
2023-05-09T00:27:02.170Z,101837.44
2023-05-09T00:29:28.540Z,101836.03
2023-05-09T00:31:55.035Z,101837.84
2023-05-09T00:34:21.533Z,101840.00
2023-05-09T00:36:47.978Z,101838.59
2023-05-09T00:39:14.330Z,101837.34
2023-05-09T00:41:40.773Z,101832.31
2023-05-09T00:44:07.649Z,101835.75
2023-05-09T00:46:34.140Z,101830.31
2023-05-09T00:49:00.573Z,101830.81
2023-05-09T00:51:28.437Z,101836.06
2023-05-09T00:53:54.811Z,101826.00
2023-05-09T00:56:21.932Z,101825.75
2023-05-09T00:58:48.466Z,101826.84
2023-05-09T01:01:15.008Z,101828.25
2023-05-09T01:03:42.013Z,101822.66
2023-05-09T01:06:20.002Z,101817.78
2023-05-09T01:09:02.641Z,101811.00
2023-05-09T01:11:38.978Z,101801.06
2023-05-09T01:14:24.635Z,101797.09
2023-05-09T01:16:58.717Z,101793.81
2023-05-09T01:19:43.753Z,101792.06
2023-05-09T01:22:13.901Z,101787.59
2023-05-09T01:25:19.509Z,101773.81
2023-05-09T01:28:13.364Z,101779.03
2023-05-09T01:30:43.330Z,101777.38
2023-05-09T01:33:13.362Z,101772.16
2023-05-09T01:35:44.380Z,101768.03
2023-05-09T01:38:17.553Z,101767.59
2023-05-09T01:40:47.410Z,101772.34
2023-05-09T01:43:17.555Z,101766.63
2023-05-09T01:45:45.186Z,101767.72
2023-05-09T01:48:13.246Z,101771.16
2023-05-09T01:50:40.874Z,101764.56
2023-05-09T01:53:08.700Z,101759.69
2023-05-09T01:55:37.773Z,101755.31
2023-05-09T01:58:05.875Z,101754.47
2023-05-09T02:00:34.175Z,101764.19
2023-05-09T02:03:02.988Z,101759.25
2023-05-09T02:05:30.962Z,101757.34
2023-05-09T02:07:58.617Z,101749.16
2023-05-09T02:10:27.490Z,101750.72
2023-05-09T02:12:55.271Z,101744.69
2023-05-09T02:15:22.965Z,101735.47
2023-05-09T02:17:49.493Z,101742.63
2023-05-09T02:20:15.956Z,101741.56
2023-05-09T02:22:43.844Z,101738.75
2023-05-09T02:25:15.087Z,101731.16
2023-05-09T02:27:45.275Z,101728.34
2023-05-09T02:30:17.164Z,101727.78
2023-05-09T02:32:47.099Z,101726.69
2023-05-09T02:35:16.439Z,101728.28
2023-05-09T02:37:44.598Z,101729.09
2023-05-09T02:40:11.802Z,101728.13
2023-05-09T02:42:38.134Z,101725.66
2023-05-09T02:45:04.926Z,101724.34
2023-05-09T02:47:31.836Z,101724.84
2023-05-09T02:49:58.285Z,101729.94
2023-05-09T02:52:24.777Z,101729.63
2023-05-09T02:54:51.142Z,101719.56
2023-05-09T02:57:17.690Z,101722.03
2023-05-09T02:59:44.170Z,101711.41
2023-05-09T03:02:10.661Z,101712.47
2023-05-09T03:04:37.474Z,101719.56
2023-05-09T03:07:04.349Z,101719.56
2023-05-09T03:09:30.872Z,101708.06
2023-05-09T03:11:57.386Z,101702.97
2023-05-09T03:14:23.821Z,101692.44
2023-05-09T03:16:50.255Z,101696.22
2023-05-09T03:19:16.989Z,101694.06
2023-05-09T03:21:43.324Z,101690.84
2023-05-09T03:24:10.546Z,101685.66
2023-05-09T03:26:36.910Z,101683.41
2023-05-09T03:29:03.844Z,101679.88
2023-05-09T03:31:32.365Z,101680.94
2023-05-09T03:33:58.829Z,101666.25
2023-05-09T03:36:25.324Z,101671.97
2023-05-09T03:38:51.630Z,101664.09
2023-05-09T03:41:18.803Z,101664.59
2023-05-09T03:43:45.619Z,101659.16
2023-05-09T03:46:11.981Z,101647.69
2023-05-09T03:48:38.450Z,101644.63
2023-05-09T03:51:04.842Z,101645.44
2023-05-09T03:53:31.424Z,101641.66
2023-05-09T03:55:57.806Z,101633.50
2023-05-09T03:58:24.201Z,101630.78
2023-05-09T04:00:50.640Z,101629.13
2023-05-09T04:03:17.012Z,101626.41
2023-05-09T04:05:43.468Z,101625.00
2023-05-09T04:08:09.917Z,101629.28
2023-05-09T04:10:36.239Z,101619.69
2023-05-09T04:13:02.744Z,101624.06
2023-05-09T04:15:29.122Z,101632.59
2023-05-09T04:17:55.674Z,101625.75
2023-05-09T04:20:22.159Z,101633.91
2023-05-09T04:22:48.556Z,101631.19
2023-05-09T04:25:15.982Z,101630.09
2023-05-09T04:27:42.645Z,101622.19
2023-05-09T04:30:09.522Z,101631.19
2023-05-09T04:32:36.743Z,101624.06
2023-05-09T04:35:03.985Z,101632.25
2023-05-09T04:37:31.465Z,101630.09
2023-05-09T04:39:57.959Z,101625.75
2023-05-09T04:42:24.359Z,101619.22
2023-05-09T04:44:51.746Z,101609.97
2023-05-09T04:47:18.289Z,101611.66
2023-05-09T04:49:44.762Z,101606.19
2023-05-09T04:52:11.338Z,101604.88
2023-05-09T04:54:37.667Z,101611.94
2023-05-09T04:57:17.309Z,101605.72
2023-05-09T04:59:44.754Z,101587.22
2023-05-09T05:02:11.163Z,101588.34
2023-05-09T05:04:37.607Z,101592.50
2023-05-09T05:07:05.043Z,101593.66
2023-05-09T05:09:31.430Z,101595.88
2023-05-09T05:12:01.125Z,101589.09
2023-05-09T05:14:28.993Z,101585.66
2023-05-09T05:16:55.494Z,101577.78
2023-05-09T05:19:21.900Z,101588.53
2023-05-09T05:21:48.241Z,101567.56
2023-05-09T05:24:14.811Z,101566.22
2023-05-09T05:26:41.210Z,101566.56
2023-05-09T05:29:07.689Z,101565.25
2023-05-09T05:31:34.157Z,101555.47
2023-05-09T05:34:00.662Z,101555.00
2023-05-09T05:36:27.225Z,101557.63
2023-05-09T05:38:53.613Z,101549.00
2023-05-09T05:41:20.017Z,101544.22
2023-05-09T05:43:46.519Z,101550.28
2023-05-09T05:46:12.972Z,101545.66
2023-05-09T05:48:39.479Z,101549.22
2023-05-09T05:51:06.461Z,101550.94
2023-05-09T05:53:32.997Z,101546.91
2023-05-09T05:55:59.376Z,101544.31
2023-05-09T05:58:26.389Z,101530.44
2023-05-09T06:00:52.982Z,101537.28
2023-05-09T06:03:19.401Z,101519.56
2023-05-09T06:05:46.884Z,101520.91
2023-05-09T06:08:13.433Z,101527.19
2023-05-09T06:10:39.878Z,101534.78
2023-05-09T06:13:06.286Z,101525.81
2023-05-09T06:15:32.723Z,101520.06
2023-05-09T06:17:59.293Z,101529.03
2023-05-09T06:20:25.745Z,101514.00
2023-05-09T06:22:52.227Z,101512.69
2023-05-09T06:25:18.601Z,101502.00
2023-05-09T06:27:44.995Z,101503.66
2023-05-09T06:30:24.886Z,101502.84
2023-05-09T06:32:53.488Z,101514.25
2023-05-09T06:35:20.074Z,101503.63
2023-05-09T06:37:48.388Z,101494.34
2023-05-09T06:40:16.021Z,101488.31
2023-05-09T06:42:42.454Z,101479.31
2023-05-09T06:45:09.210Z,101483.44
2023-05-09T06:47:35.747Z,101484.81
2023-05-09T06:50:02.304Z,101485.13
2023-05-09T06:52:28.675Z,101474.00
2023-05-09T06:54:55.248Z,101470.47
2023-05-09T06:57:21.699Z,101477.59
2023-05-09T06:59:48.358Z,101469.13
2023-05-09T07:02:14.762Z,101466.97
2023-05-09T07:04:41.136Z,101467.28
2023-05-09T07:07:07.683Z,101461.81
2023-05-09T07:09:34.159Z,101469.44
2023-05-09T07:12:01.491Z,101464.81
2023-05-09T07:14:27.932Z,101462.38
2023-05-09T07:17:02.196Z,101464.06
2023-05-09T07:19:36.608Z,101454.25
2023-05-09T07:22:02.966Z,101456.47
2023-05-09T07:24:29.513Z,101455.94
2023-05-09T07:26:55.892Z,101453.78
2023-05-09T07:29:22.261Z,101453.75
2023-05-09T07:31:48.688Z,101462.44
2023-05-09T07:34:16.650Z,101458.06
2023-05-09T07:36:43.141Z,101450.91
2023-05-09T07:39:09.553Z,101453.63
2023-05-09T07:41:35.911Z,101445.13
2023-05-09T07:44:02.289Z,101449.25
2023-05-09T07:46:28.659Z,101448.75
2023-05-09T07:48:55.073Z,101439.47
2023-05-09T07:51:21.640Z,101447.13
2023-05-09T07:53:48.038Z,101443.28
2023-05-09T07:56:14.466Z,101444.94
2023-05-09T07:58:40.855Z,101438.44
2023-05-09T08:01:07.225Z,101432.16
2023-05-09T08:03:33.668Z,101426.72
2023-05-09T08:06:00.235Z,101430.50
2023-05-09T08:08:28.293Z,101417.66
2023-05-09T08:10:55.618Z,101422.59
2023-05-09T08:13:22.673Z,101413.34
2023-05-09T08:15:49.312Z,101414.97
2023-05-09T08:18:15.885Z,101398.59
2023-05-09T08:20:42.296Z,101404.06
2023-05-09T08:23:09.182Z,101408.41
2023-05-09T08:25:35.618Z,101400.22
2023-05-09T08:28:02.009Z,101400.56
2023-05-09T08:30:29.519Z,101398.69
2023-05-09T08:32:58.835Z,101391.88
2023-05-09T08:35:25.320Z,101393.75
2023-05-09T08:37:51.736Z,101386.06
2023-05-09T08:40:18.320Z,101382.50
2023-05-09T08:42:46.107Z,101382.22
2023-05-09T08:45:17.188Z,101379.03
2023-05-09T08:47:44.456Z,101386.69
2023-05-09T08:50:11.748Z,101379.09
2023-05-09T08:52:38.594Z,101378.22
2023-05-09T08:55:05.743Z,101383.84
2023-05-09T08:57:34.911Z,101369.06
2023-05-09T09:00:01.443Z,101370.94
2023-05-09T09:02:28.046Z,101369.91
2023-05-09T09:04:55.172Z,101369.38
2023-05-09T09:07:23.205Z,101369.91
2023-05-09T09:09:50.399Z,101360.94
2023-05-09T09:12:18.107Z,101363.16
2023-05-09T09:14:50.145Z,101361.53
2023-05-09T09:17:19.438Z,101365.09
2023-05-09T09:19:49.469Z,101365.38
2023-05-09T09:22:19.139Z,101356.94
2023-05-09T09:24:45.891Z,101357.19
2023-05-09T09:27:12.444Z,101359.38
2023-05-09T09:29:38.963Z,101351.06
2023-05-09T09:32:06.865Z,101347.75
2023-05-09T09:34:33.376Z,101347.75
2023-05-09T09:36:59.784Z,101351.59
2023-05-09T09:39:26.106Z,101343.13
2023-05-09T09:41:53.933Z,101337.69
2023-05-09T09:44:22.049Z,101337.19
2023-05-09T09:46:50.252Z,101333.09
2023-05-09T09:49:19.687Z,101340.22
2023-05-09T09:51:53.496Z,101343.97
2023-05-09T09:54:20.421Z,101335.47
2023-05-09T09:56:48.695Z,101338.44
2023-05-09T09:59:17.529Z,101334.09
2023-05-09T10:02:03.031Z,101334.09
2023-05-09T10:04:43.183Z,101329.72
2023-05-09T10:07:12.826Z,101326.09
2023-05-09T10:09:41.266Z,101325.16
2023-05-09T10:12:08.614Z,101334.94
2023-05-09T10:14:37.096Z,101328.66
2023-05-09T10:17:05.534Z,101320.25
2023-05-09T10:19:33.236Z,101322.47
2023-05-09T10:22:04.301Z,101327.66
2023-05-09T10:24:45.976Z,101322.19
2023-05-09T10:27:13.285Z,101316.53
2023-05-09T10:29:51.445Z,101316.84
2023-05-09T10:32:23.064Z,101316.38
2023-05-09T10:34:53.342Z,101309.84
2023-05-09T10:37:21.445Z,101316.03
2023-05-09T10:39:53.070Z,101304.78
2023-05-09T10:42:20.042Z,101300.63
2023-05-09T10:44:46.996Z,101298.41
2023-05-09T10:47:14.097Z,101289.97
2023-05-09T10:49:40.934Z,101282.94
2023-05-09T10:52:07.393Z,101287.34
2023-05-09T10:54:36.321Z,101290.88
2023-05-09T10:57:03.533Z,101274.25
2023-05-09T10:59:41.931Z,101278.97
2023-05-09T11:02:18.967Z,101283.09
2023-05-09T11:04:45.674Z,101275.34
2023-05-09T11:07:27.577Z,101268.00
2023-05-09T11:10:08.482Z,101265.38
2023-05-09T11:12:34.709Z,101262.03
2023-05-09T11:15:06.309Z,101261.75
2023-05-09T11:17:32.751Z,101260.13
2023-05-09T11:20:03.346Z,101257.38
2023-05-09T11:22:32.835Z,101260.34
2023-05-09T11:25:08.225Z,101252.81
2023-05-09T11:27:44.125Z,101246.81
2023-05-09T11:30:14.212Z,101244.59
2023-05-09T11:32:43.484Z,101241.28
2023-05-09T11:35:12.478Z,101245.63
2023-05-09T11:38:02.625Z,101230.84
2023-05-09T11:40:30.150Z,101232.56
2023-05-09T11:42:58.581Z,101230.69
2023-05-09T11:45:27.921Z,101227.16
2023-05-09T11:47:54.591Z,101229.50
2023-05-09T11:50:21.641Z,101223.78
2023-05-09T11:52:48.928Z,101217.19
2023-05-09T11:55:25.116Z,101216.84
2023-05-09T11:57:52.936Z,101214.41
2023-05-09T12:00:21.582Z,101210.06
2023-05-09T12:02:49.153Z,101213.56
2023-05-09T12:05:17.616Z,101203.91
2023-05-09T12:07:45.415Z,101209.88
2023-05-09T12:10:14.771Z,101208.16
2023-05-09T12:12:49.833Z,101203.22
2023-05-09T12:15:17.566Z,101212.44
2023-05-09T12:17:45.403Z,101206.47
2023-05-09T12:20:12.189Z,101201.56
2023-05-09T12:22:39.022Z,101201.56
2023-05-09T12:25:08.209Z,101202.34
2023-05-09T12:27:39.894Z,101202.63
2023-05-09T12:30:10.998Z,101199.06
2023-05-09T12:32:40.011Z,101190.75
2023-05-09T12:35:08.557Z,101188.94
2023-05-09T12:37:35.260Z,101191.44
2023-05-09T12:40:19.911Z,101183.78
2023-05-09T12:42:46.974Z,101185.91
2023-05-09T12:45:13.994Z,101183.97
2023-05-09T12:47:42.031Z,101173.91
2023-05-09T12:50:11.565Z,101173.16
2023-05-09T12:52:58.554Z,101167.78
2023-05-09T12:55:29.166Z,101159.31
2023-05-09T12:58:02.654Z,101159.41
2023-05-09T13:00:44.581Z,101153.22
2023-05-09T13:03:29.543Z,101154.88
2023-05-09T13:06:03.667Z,101147.00
2023-05-09T13:08:31.252Z,101158.44
2023-05-09T13:11:11.951Z,101144.53
2023-05-09T13:13:42.303Z,101144.53
2023-05-09T13:16:10.696Z,101153.78
2023-05-09T13:18:38.810Z,101140.34
2023-05-09T13:21:05.259Z,101137.31
2023-05-09T13:23:31.666Z,101128.31
2023-05-09T13:25:58.198Z,101129.97
2023-05-09T13:28:24.573Z,101123.69
2023-05-09T13:30:51.194Z,101122.34
2023-05-09T13:35:51.209Z,101120.47
2023-05-09T13:38:17.624Z,101114.22
2023-05-09T13:40:44.107Z,101112.59
2023-05-09T13:43:10.475Z,101104.72
2023-05-09T13:45:37.002Z,101102.59
2023-05-09T13:48:03.694Z,101101.28
2023-05-09T13:50:30.126Z,101114.41
2023-05-09T13:52:56.470Z,101102.91
2023-05-09T13:55:22.916Z,101099.06
2023-05-09T13:57:49.316Z,101107.19
2023-05-09T14:00:16.154Z,101093.47
2023-05-09T14:02:42.627Z,101103.22
2023-05-09T14:05:09.303Z,101096.38
2023-05-09T14:07:35.887Z,101092.28
2023-05-09T14:12:31.934Z,101094.16
2023-05-09T14:14:58.273Z,101088.44
2023-05-09T14:17:24.670Z,101090.34
2023-05-09T14:19:51.110Z,101089.53
2023-05-09T14:22:17.658Z,101082.75
2023-05-09T14:24:44.655Z,101081.41
2023-05-09T14:27:11.132Z,101071.69
2023-05-09T14:29:41.045Z,101074.72
2023-05-09T14:32:08.080Z,101068.50
2023-05-09T14:34:34.530Z,101070.09
2023-05-09T14:37:00.849Z,101062.44
2023-05-09T14:39:27.236Z,101065.16
2023-05-09T14:41:53.620Z,101059.69
2023-05-09T14:44:20.290Z,101064.00
2023-05-09T14:46:46.729Z,101065.66
2023-05-09T14:49:13.195Z,101052.59
2023-05-09T14:51:39.585Z,101055.59
2023-05-09T14:54:06.874Z,101050.41
2023-05-09T14:56:33.593Z,101043.88
2023-05-09T14:59:00.022Z,101043.06
2023-05-09T15:01:26.406Z,101036.25
2023-05-09T15:03:53.078Z,101040.63
2023-05-09T15:06:19.560Z,101039.03
2023-05-09T15:08:46.477Z,101033.00
2023-05-09T15:11:12.916Z,101031.34
2023-05-09T15:13:39.311Z,101033.75
2023-05-09T15:16:05.836Z,101025.84
2023-05-09T15:18:33.472Z,101026.91
2023-05-09T15:21:00.495Z,101034.78
2023-05-09T15:23:26.976Z,101021.97
2023-05-09T15:25:53.574Z,101022.00
2023-05-09T15:28:20.070Z,101015.19
2023-05-09T15:30:46.675Z,101016.31
2023-05-09T15:33:13.253Z,101018.22
2023-05-09T15:35:40.041Z,101013.59
2023-05-09T15:38:07.750Z,101016.06
2023-05-09T15:40:34.227Z,101008.13
2023-05-09T15:43:08.024Z,101010.88
2023-05-09T15:45:34.757Z,101011.94
2023-05-09T15:48:01.226Z,101014.44
2023-05-09T15:50:28.274Z,101013.59
2023-05-09T15:52:54.677Z,101015.47
2023-05-09T15:55:21.286Z,101009.19
2023-05-09T15:57:48.195Z,101012.44
2023-05-09T16:00:16.194Z,100995.78
2023-05-09T16:02:44.226Z,100990.63
2023-05-09T16:05:11.113Z,100991.47
2023-05-09T16:07:37.647Z,100992.81
2023-05-09T16:10:04.326Z,100992.00
2023-05-09T16:12:32.760Z,100990.09
2023-05-09T16:14:59.348Z,100990.56
2023-05-09T16:17:25.917Z,100990.22
2023-05-09T16:19:52.373Z,100995.94
2023-05-09T16:22:19.216Z,100985.75
2023-05-09T16:24:46.408Z,100988.47
2023-05-09T16:27:14.525Z,100985.44
2023-05-09T16:29:41.652Z,100980.28
2023-05-09T16:32:08.917Z,100977.56
2023-05-09T16:34:35.905Z,100969.13
2023-05-09T16:37:03.036Z,100972.97
2023-05-09T16:39:30.552Z,100974.38
2023-05-09T16:41:57.943Z,100967.88
2023-05-09T16:44:25.077Z,100969.25
2023-05-09T16:46:51.405Z,100965.41
2023-05-09T16:49:17.981Z,100971.41
2023-05-09T16:51:44.426Z,100963.47
2023-05-09T16:54:10.889Z,100960.75
2023-05-09T16:56:37.480Z,100960.50
2023-05-09T16:59:04.081Z,100958.88
2023-05-09T17:01:30.755Z,100953.69
2023-05-09T17:03:57.351Z,100954.25
2023-05-09T17:06:23.793Z,100953.16
2023-05-09T17:08:50.134Z,100952.31
2023-05-09T17:11:16.540Z,100942.50
2023-05-09T17:13:43.955Z,100955.31
2023-05-09T17:16:10.603Z,100939.81
2023-05-09T17:18:38.273Z,100947.16
2023-05-09T17:21:05.235Z,100946.06
2023-05-09T17:23:31.777Z,100946.06
2023-05-09T17:25:58.318Z,100941.41
2023-05-09T17:28:24.696Z,100939.75
2023-05-09T17:30:51.486Z,100943.56
2023-05-09T17:33:17.963Z,100938.41
2023-05-09T17:35:44.385Z,100938.09
2023-05-09T17:38:10.849Z,100936.75
2023-05-09T17:40:38.042Z,100942.47
2023-05-09T17:43:04.500Z,100935.34
2023-05-09T17:45:30.961Z,100931.81
2023-05-09T17:47:57.726Z,100930.97
2023-05-09T17:50:24.330Z,100931.81
2023-05-09T17:52:50.885Z,100939.97
2023-05-09T17:55:17.696Z,100930.97
2023-05-09T17:57:44.236Z,100933.97
2023-05-09T18:00:11.445Z,100937.78
2023-05-09T18:02:37.940Z,100937.47
2023-05-09T18:05:05.700Z,100934.50
2023-05-09T18:07:33.652Z,100930.97
2023-05-09T18:10:00.176Z,100930.13
2023-05-09T18:12:28.878Z,100931.25
2023-05-09T18:14:55.501Z,100932.84
2023-05-09T18:17:22.056Z,100923.06
2023-05-09T18:19:48.504Z,100932.03
2023-05-09T18:22:15.557Z,100926.31
2023-05-09T18:24:42.002Z,100932.31
2023-05-09T18:27:08.553Z,100926.56
2023-05-09T18:29:34.901Z,100930.66
2023-05-09T18:32:01.895Z,100934.97
2023-05-09T18:34:28.804Z,100928.72
2023-05-09T18:36:55.750Z,100930.06
2023-05-09T18:39:22.172Z,100933.88
2023-05-09T18:41:48.580Z,100930.59
2023-05-09T18:44:15.146Z,100931.13
2023-05-09T18:46:41.584Z,100920.75
2023-05-09T18:49:09.559Z,100933.25
2023-05-09T18:51:36.446Z,100933.25
2023-05-09T18:54:02.965Z,100931.06
2023-05-09T18:56:29.379Z,100935.41
2023-05-09T18:58:55.790Z,100926.41
2023-05-09T19:01:24.289Z,100933.50
2023-05-09T19:03:54.248Z,100928.59
2023-05-09T19:06:21.632Z,100932.38
2023-05-09T19:08:48.972Z,100937.81
2023-05-09T19:11:16.077Z,100931.56
2023-05-09T19:13:48.568Z,100931.00
2023-05-09T19:16:16.539Z,100939.44
2023-05-09T19:18:43.025Z,100937.53
2023-05-09T19:21:09.453Z,100945.97
2023-05-09T19:23:35.837Z,100937.25
2023-05-09T19:26:03.389Z,100932.34
2023-05-09T19:28:29.721Z,100934.25
2023-05-09T19:30:57.283Z,100936.97
2023-05-09T19:33:23.802Z,100945.13
2023-05-09T19:35:50.249Z,100946.47
2023-05-09T19:38:16.651Z,100949.47
2023-05-09T19:40:42.985Z,100950.81
2023-05-09T19:43:09.498Z,100959.75
2023-05-09T19:45:35.810Z,100954.81
2023-05-09T19:48:02.498Z,100961.59
2023-05-09T19:50:30.157Z,100955.94
2023-05-09T19:52:58.233Z,100958.06
2023-05-09T19:55:24.630Z,100960.50
2023-05-09T19:57:51.054Z,100956.94
2023-05-09T20:00:18.112Z,100961.22
2023-05-09T20:02:44.849Z,100959.56
2023-05-09T20:05:11.360Z,100965.59
2023-05-09T20:07:37.782Z,100965.00
2023-05-09T20:10:04.604Z,100975.34
2023-05-09T20:12:31.263Z,100967.13
2023-05-09T20:14:57.734Z,100969.56
2023-05-09T20:17:24.235Z,100971.44
2023-05-09T20:19:51.137Z,100972.53
2023-05-09T20:22:17.805Z,100969.00
2023-05-09T20:24:44.248Z,100973.06
2023-05-09T20:27:10.952Z,100965.66
2023-05-09T20:29:37.359Z,100975.16
2023-05-09T20:32:03.825Z,100982.16
2023-05-09T20:34:30.548Z,100980.50
2023-05-09T20:36:57.005Z,100982.66
2023-05-09T20:39:24.462Z,100984.00
2023-05-09T20:41:52.070Z,100982.63
2023-05-09T20:44:19.165Z,100984.50
2023-05-09T20:46:45.927Z,100984.75
2023-05-09T20:49:12.623Z,100984.19
2023-05-09T20:51:40.244Z,100987.47
2023-05-09T20:54:07.046Z,100986.91
2023-05-09T20:56:35.257Z,100998.84
2023-05-09T20:59:03.979Z,100995.03
2023-05-09T21:01:37.185Z,100991.47
2023-05-09T21:04:05.481Z,101001.47
2023-05-09T21:06:32.976Z,100995.72
2023-05-09T21:08:59.392Z,100993.50
2023-05-09T21:11:25.897Z,100988.56
2023-05-09T21:13:52.376Z,100986.97
2023-05-09T21:16:18.837Z,100989.91
2023-05-09T21:18:45.366Z,100987.69
2023-05-09T21:21:11.817Z,100990.41
2023-05-09T21:23:38.388Z,100981.19
2023-05-09T21:26:04.863Z,100990.41
2023-05-09T21:28:31.405Z,100985.50
2023-05-09T21:30:59.882Z,100979.56
2023-05-09T21:33:26.312Z,100979.56
2023-05-09T21:35:52.804Z,100980.38
2023-05-09T21:38:19.218Z,100972.22
2023-05-09T21:40:45.758Z,100967.84
2023-05-09T21:43:12.193Z,100973.56
2023-05-09T21:45:38.595Z,100975.44
2023-05-09T21:48:05.476Z,100970.28
2023-05-09T21:50:31.965Z,100967.81
2023-05-09T21:52:58.430Z,100970.28
2023-05-09T21:55:25.063Z,100967.06
2023-05-09T21:57:51.789Z,100963.75
2023-05-09T22:00:18.886Z,100964.34
2023-05-09T22:02:45.551Z,100960.81
2023-05-09T22:05:12.512Z,100962.75
2023-05-09T22:07:38.983Z,100961.34
2023-05-09T22:10:06.100Z,100959.97
2023-05-09T22:12:33.375Z,100952.88
2023-05-09T22:14:59.994Z,100949.09
2023-05-09T22:17:26.694Z,100959.97
2023-05-09T22:19:53.076Z,100965.13
2023-05-09T22:22:19.555Z,100957.56
2023-05-09T22:24:45.914Z,100951.88
2023-05-09T22:27:12.394Z,100955.97
2023-05-09T22:29:38.831Z,100950.53
2023-05-09T22:32:07.666Z,100951.38
2023-05-09T22:34:34.524Z,100955.47
2023-05-09T22:37:00.842Z,100954.59
2023-05-09T22:39:27.216Z,100955.41
2023-05-09T22:41:53.573Z,100950.81
2023-05-09T22:44:19.903Z,100943.72
2023-05-09T22:46:46.268Z,100944.00
2023-05-09T22:49:12.855Z,100949.16
2023-05-09T22:51:39.299Z,100950.25
2023-05-09T22:54:05.863Z,100949.97
2023-05-09T22:56:32.252Z,100941.00
2023-05-09T22:58:58.907Z,100948.59
2023-05-09T23:01:27.240Z,100951.31
2023-05-09T23:03:53.672Z,100951.56
2023-05-09T23:06:20.003Z,100954.53
2023-05-09T23:08:46.842Z,100952.88
2023-05-09T23:11:13.239Z,100943.94
2023-05-09T23:13:39.589Z,100955.56
2023-05-09T23:16:06.484Z,100952.28
2023-05-09T23:18:33.172Z,100953.34
2023-05-09T23:20:59.806Z,100950.63
2023-05-09T23:23:26.242Z,100946.03
2023-05-09T23:25:52.601Z,100944.13
2023-05-09T23:28:20.324Z,100948.50
2023-05-09T23:30:46.833Z,100950.63
2023-05-09T23:33:13.371Z,100947.34
2023-05-09T23:35:39.702Z,100944.91
2023-05-09T23:38:06.309Z,100945.69
2023-05-09T23:40:32.972Z,100939.16
2023-05-09T23:42:59.427Z,100948.38
2023-05-09T23:45:26.118Z,100948.88
2023-05-09T23:47:52.805Z,100945.09
2023-05-09T23:50:19.530Z,100941.50
2023-05-09T23:52:49.153Z,100943.81
2023-05-09T23:55:15.608Z,100948.44
2023-05-09T23:57:42.221Z,100940.84
